createdAt,value
2023-01-23T00:00:03.200Z,2.05
2023-01-23T00:00:34.598Z,2.75
2023-01-23T00:01:05.994Z,2.17
2023-01-23T00:01:37.434Z,2.57
2023-01-23T00:02:08.860Z,2.37
2023-01-23T00:02:40.324Z,2.12
2023-01-23T00:03:11.782Z,1.95
2023-01-23T00:03:43.227Z,2.31
2023-01-23T00:04:14.744Z,2.66
2023-01-23T00:04:46.156Z,2.44
2023-01-23T00:05:17.551Z,2.36
2023-01-23T00:05:48.946Z,2.09
2023-01-23T00:06:20.360Z,1.87
2023-01-23T00:06:51.792Z,2.53
2023-01-23T00:07:23.221Z,2.47
2023-01-23T00:07:54.638Z,1.82
2023-01-23T00:08:26.063Z,2.22
2023-01-23T00:08:57.460Z,1.98
2023-01-23T00:09:28.859Z,2.63
2023-01-23T00:10:00.250Z,2.11
2023-01-23T00:10:31.650Z,2.36
2023-01-23T00:11:03.062Z,2.28
2023-01-23T00:11:34.471Z,2.43
2023-01-23T00:12:05.912Z,1.91
2023-01-23T00:12:37.322Z,2.11
2023-01-23T00:13:08.736Z,2.08
2023-01-23T00:13:40.150Z,2.36
2023-01-23T00:14:11.576Z,2.06
2023-01-23T00:14:42.974Z,1.94
2023-01-23T00:15:14.374Z,2.51
2023-01-23T00:15:45.821Z,2.28
2023-01-23T00:16:17.250Z,2.17
2023-01-23T00:16:48.681Z,2.40
2023-01-23T00:17:20.112Z,2.11
2023-01-23T00:17:51.535Z,1.91
2023-01-23T00:18:22.931Z,2.50
2023-01-23T00:18:54.340Z,2.49
2023-01-23T00:19:25.758Z,1.90
2023-01-23T00:19:57.155Z,2.29
2023-01-23T00:20:28.547Z,2.13
2023-01-23T00:20:59.949Z,1.98
2023-01-23T00:21:31.359Z,2.41
2023-01-23T00:22:02.755Z,1.77
2023-01-23T00:22:34.174Z,2.05
2023-01-23T00:23:05.564Z,2.27
2023-01-23T00:23:36.961Z,2.19
2023-01-23T00:24:08.420Z,2.19
2023-01-23T00:24:39.840Z,2.04
2023-01-23T00:25:11.239Z,2.28
2023-01-23T00:25:42.638Z,2.12
2023-01-23T00:26:14.050Z,2.32
2023-01-23T00:26:45.469Z,2.06
2023-01-23T00:27:16.891Z,2.38
2023-01-23T00:27:48.318Z,2.35
2023-01-23T00:28:19.737Z,2.48
2023-01-23T00:28:51.131Z,2.16
2023-01-23T00:29:22.565Z,1.99
2023-01-23T00:29:53.974Z,2.12
2023-01-23T00:30:25.389Z,2.06
2023-01-23T00:30:56.892Z,2.37
2023-01-23T00:31:28.536Z,2.33
2023-01-23T00:32:00.106Z,1.95
2023-01-23T00:32:31.583Z,2.16
2023-01-23T00:33:03.046Z,2.80
2023-01-23T00:33:34.476Z,1.75
2023-01-23T00:34:05.887Z,1.99
2023-01-23T00:34:37.326Z,2.11
2023-01-23T00:35:08.753Z,1.97
2023-01-23T00:35:40.146Z,1.83
2023-01-23T00:36:11.547Z,1.82
2023-01-23T00:36:42.939Z,2.06
2023-01-23T00:37:14.363Z,1.69
2023-01-23T00:37:45.785Z,2.24
2023-01-23T00:38:17.281Z,2.33
2023-01-23T00:38:48.717Z,2.25
2023-01-23T00:39:20.124Z,2.19
2023-01-23T00:39:51.545Z,1.56
2023-01-23T00:40:22.937Z,2.26
2023-01-23T00:40:54.350Z,1.80
2023-01-23T00:41:25.757Z,2.40
2023-01-23T00:41:57.174Z,1.89
2023-01-23T00:42:28.602Z,1.71
2023-01-23T00:43:00.028Z,1.67
2023-01-23T00:43:31.514Z,1.58
2023-01-23T00:44:02.944Z,2.00
2023-01-23T00:44:34.352Z,1.83
2023-01-23T00:45:05.782Z,1.79
2023-01-23T00:45:37.186Z,2.30
2023-01-23T00:46:08.631Z,1.73
2023-01-23T00:46:40.168Z,2.31
2023-01-23T00:47:11.609Z,1.81
2023-01-23T00:47:43.022Z,2.35
2023-01-23T00:48:14.447Z,2.16
2023-01-23T00:48:45.893Z,2.01
2023-01-23T00:49:17.298Z,1.86
2023-01-23T00:49:48.717Z,2.13
2023-01-23T00:50:20.393Z,1.94
2023-01-23T00:50:52.052Z,1.53
2023-01-23T00:51:23.541Z,1.84
2023-01-23T00:51:55.006Z,1.59
2023-01-23T00:52:26.393Z,2.39
2023-01-23T00:52:57.795Z,2.05
2023-01-23T00:53:29.205Z,2.07
2023-01-23T00:54:00.646Z,2.15
2023-01-23T00:54:32.065Z,2.41
2023-01-23T00:55:03.483Z,2.52
2023-01-23T00:55:34.887Z,2.23
2023-01-23T00:56:06.275Z,1.79
2023-01-23T00:56:37.670Z,2.55
2023-01-23T00:57:09.086Z,1.86
2023-01-23T00:57:40.499Z,2.27
2023-01-23T00:58:11.929Z,1.96
2023-01-23T00:58:45.239Z,2.11
2023-01-23T00:59:16.833Z,1.72
2023-01-23T00:59:48.254Z,2.12
2023-01-23T01:00:19.849Z,1.97
2023-01-23T01:00:51.478Z,1.65
2023-01-23T01:01:22.939Z,1.96
2023-01-23T01:01:54.474Z,2.39
2023-01-23T01:02:25.928Z,2.24
2023-01-23T01:02:57.362Z,1.72
2023-01-23T01:03:28.794Z,2.23
2023-01-23T01:04:00.199Z,2.36
2023-01-23T01:04:31.619Z,2.17
2023-01-23T01:05:03.023Z,2.15
2023-01-23T01:05:34.431Z,2.28
2023-01-23T01:06:05.876Z,1.85
2023-01-23T01:06:37.274Z,2.13
2023-01-23T01:07:08.685Z,2.12
2023-01-23T01:07:40.110Z,1.89
2023-01-23T01:08:11.519Z,1.85
2023-01-23T01:08:42.945Z,1.93
2023-01-23T01:09:14.350Z,2.25
2023-01-23T01:09:45.786Z,1.97
2023-01-23T01:10:17.427Z,1.83
2023-01-23T01:10:48.921Z,2.04
2023-01-23T01:11:20.366Z,1.95
2023-01-23T01:11:51.773Z,1.96
2023-01-23T01:12:23.178Z,1.56
2023-01-23T01:12:54.592Z,1.86
2023-01-23T01:13:25.982Z,1.94
2023-01-23T01:13:57.402Z,2.33
2023-01-23T01:14:28.804Z,2.00
2023-01-23T01:15:00.439Z,1.73
2023-01-23T01:15:31.893Z,2.28
2023-01-23T01:16:03.395Z,1.72
2023-01-23T01:16:34.869Z,1.64
2023-01-23T01:17:06.333Z,1.64
2023-01-23T01:17:37.741Z,1.98
2023-01-23T01:18:09.164Z,1.99
2023-01-23T01:18:40.578Z,2.06
2023-01-23T01:19:11.966Z,1.74
2023-01-23T01:19:43.377Z,1.96
2023-01-23T01:20:14.787Z,1.68
2023-01-23T01:20:46.190Z,1.88
2023-01-23T01:21:17.629Z,1.88
2023-01-23T01:21:49.051Z,1.82
2023-01-23T01:22:20.465Z,2.05
2023-01-23T01:22:51.887Z,2.36
2023-01-23T01:23:23.291Z,1.80
2023-01-23T01:23:54.697Z,1.86
2023-01-23T01:24:26.118Z,1.91
2023-01-23T01:24:57.535Z,1.77
2023-01-23T01:25:28.926Z,1.81
2023-01-23T01:26:00.327Z,2.08
2023-01-23T01:26:31.780Z,2.04
2023-01-23T01:27:03.186Z,1.81
2023-01-23T01:27:34.577Z,1.95
2023-01-23T01:28:05.985Z,1.71
2023-01-23T01:28:37.408Z,1.83
2023-01-23T01:29:08.823Z,1.88
2023-01-23T01:29:40.226Z,1.68
2023-01-23T01:30:11.627Z,2.13
2023-01-23T01:30:43.051Z,1.80
2023-01-23T01:31:14.559Z,2.14
2023-01-23T01:31:46.158Z,1.93
2023-01-23T01:32:17.601Z,1.88
2023-01-23T01:32:49.003Z,1.70
2023-01-23T01:33:20.405Z,2.04
2023-01-23T01:33:51.806Z,1.32
2023-01-23T01:34:23.746Z,1.84
2023-01-23T01:34:55.206Z,1.88
2023-01-23T01:35:26.607Z,1.75
2023-01-23T01:35:58.003Z,2.29
2023-01-23T01:36:29.399Z,1.95
2023-01-23T01:37:00.862Z,1.99
2023-01-23T01:37:32.259Z,1.97
2023-01-23T01:38:03.660Z,1.87
2023-01-23T01:38:35.068Z,1.97
2023-01-23T01:39:06.468Z,2.01
2023-01-23T01:39:37.891Z,2.02
2023-01-23T01:40:09.306Z,1.51
2023-01-23T01:40:40.724Z,1.51
2023-01-23T01:41:12.125Z,1.79
2023-01-23T01:41:43.537Z,1.65
2023-01-23T01:42:14.967Z,1.87
2023-01-23T01:42:46.384Z,1.63
2023-01-23T01:43:17.775Z,1.60
2023-01-23T01:43:49.423Z,2.07
2023-01-23T01:44:20.871Z,1.85
2023-01-23T01:44:52.280Z,1.55
2023-01-23T01:45:23.685Z,1.72
2023-01-23T01:45:55.077Z,1.68
2023-01-23T01:46:26.511Z,1.74
2023-01-23T01:46:57.971Z,1.66
2023-01-23T01:47:29.397Z,1.71
2023-01-23T01:48:00.820Z,1.68
2023-01-23T01:48:32.222Z,1.90
2023-01-23T01:49:03.629Z,1.96
2023-01-23T01:49:35.033Z,1.71
2023-01-23T01:50:06.432Z,2.39
2023-01-23T01:50:37.834Z,1.61
2023-01-23T01:51:09.304Z,1.62
2023-01-23T01:51:40.701Z,1.78
2023-01-23T01:52:12.099Z,1.95
2023-01-23T01:52:43.544Z,1.59
2023-01-23T01:53:14.953Z,1.90
2023-01-23T01:53:46.368Z,1.90
2023-01-23T01:54:17.769Z,1.91
2023-01-23T01:54:49.160Z,1.49
2023-01-23T01:55:20.564Z,1.35
2023-01-23T01:55:51.974Z,1.88
2023-01-23T01:56:23.368Z,1.78
2023-01-23T01:56:54.765Z,1.76
2023-01-23T01:57:26.170Z,1.75
2023-01-23T01:57:57.589Z,1.82
2023-01-23T01:58:29.018Z,2.04
2023-01-23T01:59:00.442Z,1.91
2023-01-23T01:59:31.858Z,1.71
2023-01-23T02:00:03.265Z,1.88
2023-01-23T02:00:34.688Z,1.45
2023-01-23T02:01:06.123Z,1.56
2023-01-23T02:01:37.646Z,1.73
2023-01-23T02:02:09.145Z,1.90
2023-01-23T02:02:40.620Z,1.58
2023-01-23T02:03:12.111Z,1.69
2023-01-23T02:03:43.503Z,1.49
2023-01-23T02:04:14.898Z,1.40
2023-01-23T02:04:46.318Z,1.54
2023-01-23T02:05:17.730Z,1.51
2023-01-23T02:05:49.124Z,1.80
2023-01-23T02:06:20.543Z,1.98
2023-01-23T02:06:51.962Z,1.87
2023-01-23T02:07:23.354Z,1.54
2023-01-23T02:07:54.750Z,1.59
2023-01-23T02:08:26.195Z,1.40
2023-01-23T02:08:57.594Z,1.44
2023-01-23T02:09:29.005Z,1.76
2023-01-23T02:10:00.420Z,1.92
2023-01-23T02:10:31.826Z,1.81
2023-01-23T02:11:03.237Z,1.70
2023-01-23T02:11:34.650Z,1.86
2023-01-23T02:12:06.050Z,1.54
2023-01-23T02:12:37.452Z,1.54
2023-01-23T02:13:08.847Z,1.61
2023-01-23T02:13:40.272Z,1.79
2023-01-23T02:14:11.671Z,1.62
2023-01-23T02:14:43.079Z,1.68
2023-01-23T02:15:14.488Z,1.57
2023-01-23T02:15:45.901Z,1.56
2023-01-23T02:16:17.372Z,1.45
2023-01-23T02:16:48.796Z,1.85
2023-01-23T02:17:20.213Z,1.97
2023-01-23T02:17:51.606Z,1.76
2023-01-23T02:18:23.002Z,1.70
2023-01-23T02:18:54.450Z,1.75
2023-01-23T02:19:25.923Z,1.58
2023-01-23T02:19:57.338Z,1.66
2023-01-23T02:20:28.735Z,1.70
2023-01-23T02:21:00.154Z,1.52
2023-01-23T02:21:31.554Z,1.69
2023-01-23T02:22:02.957Z,1.62
2023-01-23T02:22:34.367Z,1.62
2023-01-23T02:23:05.787Z,1.90
2023-01-23T02:23:37.227Z,1.67
2023-01-23T02:24:08.624Z,1.62
2023-01-23T02:24:40.179Z,1.73
2023-01-23T02:25:11.606Z,1.94
2023-01-23T02:25:43.024Z,1.60
2023-01-23T02:26:14.433Z,1.75
2023-01-23T02:26:45.848Z,2.08
2023-01-23T02:27:17.250Z,1.95
2023-01-23T02:27:48.657Z,1.77
2023-01-23T02:28:20.077Z,1.64
2023-01-23T02:28:51.488Z,1.87
2023-01-23T02:29:22.911Z,1.70
2023-01-23T02:29:54.333Z,1.91
2023-01-23T02:30:25.731Z,1.89
2023-01-23T02:30:57.169Z,1.44
2023-01-23T02:31:28.665Z,1.50
2023-01-23T02:32:00.203Z,1.45
2023-01-23T02:32:31.664Z,1.48
2023-01-23T02:33:03.074Z,1.84
2023-01-23T02:33:34.499Z,1.52
2023-01-23T02:34:05.939Z,1.77
2023-01-23T02:34:37.372Z,1.88
2023-01-23T02:35:08.787Z,1.86
2023-01-23T02:35:40.194Z,1.60
2023-01-23T02:36:11.607Z,1.47
2023-01-23T02:36:43.048Z,1.62
2023-01-23T02:37:14.483Z,1.84
2023-01-23T02:37:45.897Z,1.54
2023-01-23T02:38:17.285Z,1.53
2023-01-23T02:38:48.682Z,1.53
2023-01-23T02:39:20.116Z,1.91
2023-01-23T02:39:51.533Z,1.80
2023-01-23T02:40:22.977Z,1.90
2023-01-23T02:40:54.379Z,1.69
2023-01-23T02:41:25.801Z,1.79
2023-01-23T02:41:57.207Z,2.18
2023-01-23T02:42:28.617Z,1.93
2023-01-23T02:43:00.018Z,1.60
2023-01-23T02:43:31.427Z,1.93
2023-01-23T02:44:02.821Z,1.48
2023-01-23T02:44:34.256Z,1.86
2023-01-23T02:45:05.679Z,1.69
2023-01-23T02:45:37.191Z,1.79
2023-01-23T02:46:08.669Z,1.86
2023-01-23T02:46:40.121Z,1.89
2023-01-23T02:47:11.533Z,1.69
2023-01-23T02:47:42.945Z,1.61
2023-01-23T02:48:14.332Z,1.38
2023-01-23T02:48:45.746Z,1.43
2023-01-23T02:49:17.143Z,1.78
2023-01-23T02:49:48.538Z,1.46
2023-01-23T02:50:20.203Z,1.15
2023-01-23T02:50:51.774Z,1.52
2023-01-23T02:51:23.256Z,1.61
2023-01-23T02:51:54.685Z,1.51
2023-01-23T02:52:26.073Z,1.71
2023-01-23T02:52:57.486Z,1.48
2023-01-23T02:53:28.879Z,1.06
2023-01-23T02:54:00.302Z,1.85
2023-01-23T02:54:31.738Z,1.76
2023-01-23T02:55:03.202Z,1.87
2023-01-23T02:55:34.599Z,1.54
2023-01-23T02:56:06.046Z,2.00
2023-01-23T02:56:37.458Z,1.61
2023-01-23T02:57:08.871Z,1.77
2023-01-23T02:57:40.286Z,1.65
2023-01-23T02:58:11.702Z,1.56
2023-01-23T02:58:43.100Z,1.81
2023-01-23T02:59:14.533Z,1.38
2023-01-23T02:59:45.940Z,1.20
2023-01-23T03:00:17.553Z,1.88
2023-01-23T03:00:49.121Z,1.45
2023-01-23T03:01:20.662Z,1.32
2023-01-23T03:01:52.123Z,1.30
2023-01-23T03:02:23.645Z,1.45
2023-01-23T03:02:55.106Z,1.59
2023-01-23T03:03:26.490Z,1.81
2023-01-23T03:03:57.883Z,1.73
2023-01-23T03:04:29.281Z,1.61
2023-01-23T03:05:00.685Z,1.71
2023-01-23T03:05:32.138Z,1.65
2023-01-23T03:06:03.547Z,1.98
2023-01-23T03:06:34.974Z,1.67
2023-01-23T03:07:06.394Z,1.86
2023-01-23T03:07:37.809Z,1.51
2023-01-23T03:08:09.220Z,1.80
2023-01-23T03:08:40.614Z,1.39
2023-01-23T03:09:12.034Z,1.39
2023-01-23T03:09:43.438Z,1.49
2023-01-23T03:10:14.834Z,1.52
2023-01-23T03:10:46.246Z,1.87
2023-01-23T03:11:17.644Z,1.80
2023-01-23T03:11:49.039Z,1.57
2023-01-23T03:12:20.469Z,1.82
2023-01-23T03:12:51.865Z,1.56
2023-01-23T03:13:23.258Z,1.93
2023-01-23T03:13:54.673Z,1.62
2023-01-23T03:14:26.083Z,1.76
2023-01-23T03:14:57.501Z,1.65
2023-01-23T03:15:28.924Z,1.73
2023-01-23T03:16:00.389Z,1.65
2023-01-23T03:16:31.819Z,1.59
2023-01-23T03:17:03.274Z,1.86
2023-01-23T03:17:34.686Z,1.57
2023-01-23T03:18:06.094Z,1.39
2023-01-23T03:18:52.742Z,1.35
2023-01-23T03:19:25.470Z,1.68
2023-01-23T03:19:56.852Z,1.53
2023-01-23T03:20:28.250Z,1.69
2023-01-23T03:20:59.662Z,1.68
2023-01-23T03:21:31.077Z,1.54
2023-01-23T03:22:02.516Z,1.35
2023-01-23T03:22:33.923Z,1.58
2023-01-23T03:23:05.332Z,1.64
2023-01-23T03:23:36.727Z,1.69
2023-01-23T03:24:08.119Z,1.40
2023-01-23T03:24:39.517Z,1.36
2023-01-23T03:25:10.968Z,1.57
2023-01-23T03:25:42.389Z,1.86
2023-01-23T03:26:13.785Z,1.36
2023-01-23T03:26:45.191Z,1.65
2023-01-23T03:27:16.652Z,1.38
2023-01-23T03:27:48.072Z,1.77
2023-01-23T03:28:19.492Z,1.53
2023-01-23T03:28:50.895Z,1.91
2023-01-23T03:29:22.310Z,1.64
2023-01-23T03:29:53.722Z,1.48
2023-01-23T03:30:25.153Z,1.48
2023-01-23T03:30:56.628Z,1.52
2023-01-23T03:31:28.090Z,1.58
2023-01-23T03:31:59.507Z,1.55
2023-01-23T03:32:30.953Z,1.53
2023-01-23T03:33:02.391Z,1.45
2023-01-23T03:33:33.784Z,1.56
2023-01-23T03:34:05.193Z,1.44
2023-01-23T03:34:36.597Z,1.47
2023-01-23T03:35:08.021Z,1.55
2023-01-23T03:35:39.419Z,1.62
2023-01-23T03:36:13.009Z,1.46
2023-01-23T03:36:44.542Z,1.84
2023-01-23T03:37:15.969Z,2.04
2023-01-23T03:37:47.409Z,1.57
2023-01-23T03:38:18.798Z,1.48
2023-01-23T03:38:50.219Z,1.64
2023-01-23T03:39:21.618Z,1.86
2023-01-23T03:39:53.015Z,2.00
2023-01-23T03:40:24.436Z,1.64
2023-01-23T03:40:55.838Z,1.46
2023-01-23T03:41:27.242Z,1.71
2023-01-23T03:41:58.674Z,1.75
2023-01-23T03:42:30.092Z,1.46
2023-01-23T03:43:01.509Z,2.12
2023-01-23T03:43:32.970Z,1.83
2023-01-23T03:44:04.378Z,1.61
2023-01-23T03:44:35.798Z,1.54
2023-01-23T03:45:07.209Z,1.53
2023-01-23T03:45:38.708Z,1.38
2023-01-23T03:46:10.151Z,1.80
2023-01-23T03:46:41.545Z,1.78
2023-01-23T03:47:12.944Z,1.85
2023-01-23T03:47:44.344Z,1.63
2023-01-23T03:48:15.772Z,1.71
2023-01-23T03:48:47.166Z,2.09
2023-01-23T03:49:18.587Z,1.87
2023-01-23T03:49:50.016Z,1.79
2023-01-23T03:50:21.667Z,1.47
2023-01-23T03:50:53.281Z,1.40
2023-01-23T03:51:24.745Z,1.33
2023-01-23T03:51:56.241Z,1.71
2023-01-23T03:52:27.657Z,1.86
2023-01-23T03:52:59.084Z,1.67
2023-01-23T03:53:30.517Z,1.76
2023-01-23T03:54:01.910Z,1.59
2023-01-23T03:54:33.313Z,1.74
2023-01-23T03:55:04.720Z,1.13
2023-01-23T03:55:36.178Z,1.10
2023-01-23T03:56:07.578Z,1.81
2023-01-23T03:56:39.004Z,1.78
2023-01-23T03:57:10.410Z,1.49
2023-01-23T03:57:41.842Z,1.59
2023-01-23T03:58:13.241Z,1.20
2023-01-23T03:58:44.670Z,1.61
2023-01-23T03:59:16.142Z,1.61
2023-01-23T03:59:47.573Z,1.63
2023-01-23T04:00:19.322Z,1.48
2023-01-23T04:00:50.922Z,1.55
2023-01-23T04:01:22.448Z,1.35
2023-01-23T04:01:53.850Z,1.29
2023-01-23T04:02:25.302Z,1.74
2023-01-23T04:02:56.787Z,1.61
2023-01-23T04:03:28.228Z,1.72
2023-01-23T04:03:59.658Z,1.92
2023-01-23T04:04:31.049Z,1.55
2023-01-23T04:05:02.463Z,1.52
2023-01-23T04:05:33.860Z,1.45
2023-01-23T04:06:05.257Z,1.59
2023-01-23T04:06:36.676Z,2.17
2023-01-23T04:07:08.095Z,1.70
2023-01-23T04:07:39.492Z,1.60
2023-01-23T04:08:10.892Z,1.50
2023-01-23T04:08:42.297Z,1.36
2023-01-23T04:09:13.710Z,1.41
2023-01-23T04:09:45.131Z,1.43
2023-01-23T04:10:16.660Z,1.51
2023-01-23T04:10:48.114Z,1.59
2023-01-23T04:11:19.524Z,1.74
2023-01-23T04:11:50.930Z,1.43
2023-01-23T04:12:22.355Z,1.09
2023-01-23T04:12:53.764Z,1.28
2023-01-23T04:13:25.169Z,1.76
2023-01-23T04:13:56.578Z,1.36
2023-01-23T04:14:27.993Z,1.38
2023-01-23T04:14:59.388Z,1.49
2023-01-23T04:15:30.795Z,1.53
2023-01-23T04:16:02.204Z,1.58
2023-01-23T04:16:33.693Z,1.77
2023-01-23T04:17:05.175Z,1.55
2023-01-23T04:17:36.571Z,1.84
2023-01-23T04:18:07.991Z,1.81
2023-01-23T04:18:39.397Z,1.64
2023-01-23T04:19:10.799Z,1.59
2023-01-23T04:19:42.234Z,1.19
2023-01-23T04:20:13.629Z,1.50
2023-01-23T04:20:45.069Z,1.35
2023-01-23T04:21:16.486Z,1.38
2023-01-23T04:21:47.882Z,1.67
2023-01-23T04:22:19.287Z,1.51
2023-01-23T04:22:50.713Z,1.43
2023-01-23T04:23:22.147Z,1.76
2023-01-23T04:23:53.568Z,1.24
2023-01-23T04:24:24.961Z,1.46
2023-01-23T04:24:56.374Z,1.65
2023-01-23T04:25:27.776Z,1.65
2023-01-23T04:25:59.205Z,1.39
2023-01-23T04:26:30.638Z,1.78
2023-01-23T04:27:02.058Z,1.20
2023-01-23T04:27:33.482Z,1.76
2023-01-23T04:28:04.883Z,1.77
2023-01-23T04:28:36.319Z,1.39
2023-01-23T04:29:07.743Z,1.59
2023-01-23T04:29:39.161Z,1.64
2023-01-23T04:30:10.592Z,1.34
2023-01-23T04:30:42.105Z,1.32
2023-01-23T04:31:13.665Z,1.73
2023-01-23T04:31:45.381Z,1.56
2023-01-23T04:32:16.843Z,1.26
2023-01-23T04:32:48.266Z,1.59
2023-01-23T04:33:19.666Z,0.95
2023-01-23T04:33:51.065Z,1.56
2023-01-23T04:34:22.480Z,1.32
2023-01-23T04:34:53.876Z,1.71
2023-01-23T04:35:25.291Z,1.57
2023-01-23T04:35:56.690Z,1.30
2023-01-23T04:36:28.102Z,1.48
2023-01-23T04:36:59.506Z,1.68
2023-01-23T04:37:30.892Z,1.50
2023-01-23T04:38:02.319Z,1.69
2023-01-23T04:38:33.718Z,1.61
2023-01-23T04:39:05.115Z,1.95
2023-01-23T04:39:36.514Z,1.58
2023-01-23T04:40:07.942Z,1.61
2023-01-23T04:40:39.406Z,1.59
2023-01-23T04:41:10.814Z,1.48
2023-01-23T04:41:42.251Z,1.76
2023-01-23T04:42:13.663Z,1.35
2023-01-23T04:42:45.062Z,1.44
2023-01-23T04:43:16.462Z,1.18
2023-01-23T04:43:47.853Z,1.55
2023-01-23T04:44:19.243Z,1.16
2023-01-23T04:44:50.656Z,1.28
2023-01-23T04:45:22.075Z,1.37
2023-01-23T04:45:53.528Z,1.22
2023-01-23T04:46:24.978Z,1.43
2023-01-23T04:46:56.406Z,1.34
2023-01-23T04:47:27.813Z,1.42
2023-01-23T04:47:59.214Z,1.37
2023-01-23T04:48:30.625Z,1.50
2023-01-23T04:49:02.012Z,1.26
2023-01-23T04:49:33.413Z,1.76
2023-01-23T04:50:04.814Z,1.41
2023-01-23T04:50:36.217Z,1.18
2023-01-23T04:51:07.752Z,1.51
2023-01-23T04:51:39.194Z,1.52
2023-01-23T04:52:10.593Z,1.05
2023-01-23T04:52:42.003Z,1.60
2023-01-23T04:53:13.405Z,1.58
2023-01-23T04:53:44.850Z,1.48
2023-01-23T04:54:16.244Z,1.53
2023-01-23T04:54:47.642Z,1.58
2023-01-23T04:55:19.062Z,1.52
2023-01-23T04:55:50.481Z,1.57
2023-01-23T04:56:21.936Z,1.62
2023-01-23T04:56:53.346Z,0.97
2023-01-23T04:57:24.737Z,1.45
2023-01-23T04:57:56.149Z,2.05
2023-01-23T04:58:27.546Z,1.42
2023-01-23T04:58:58.963Z,1.26
2023-01-23T04:59:30.352Z,1.59
2023-01-23T05:00:01.763Z,1.61
2023-01-23T05:00:33.233Z,1.09
2023-01-23T05:01:04.694Z,1.39
2023-01-23T05:01:36.238Z,1.50
2023-01-23T05:02:07.753Z,1.54
2023-01-23T05:02:39.177Z,1.58
2023-01-23T05:03:10.618Z,1.48
2023-01-23T05:03:42.018Z,1.34
2023-01-23T05:04:13.414Z,1.28
2023-01-23T05:04:44.832Z,1.69
2023-01-23T05:05:16.234Z,1.65
2023-01-23T05:05:47.638Z,1.41
2023-01-23T05:06:19.030Z,1.48
2023-01-23T05:06:50.466Z,1.07
2023-01-23T05:07:21.877Z,1.47
2023-01-23T05:07:53.286Z,1.58
2023-01-23T05:08:24.694Z,1.68
2023-01-23T05:08:56.088Z,1.51
2023-01-23T05:09:27.516Z,1.42
2023-01-23T05:09:58.912Z,1.85
2023-01-23T05:10:30.324Z,1.32
2023-01-23T05:11:01.727Z,1.52
2023-01-23T05:11:33.145Z,1.48
2023-01-23T05:12:04.615Z,1.46
2023-01-23T05:12:36.058Z,1.49
2023-01-23T05:13:07.457Z,1.07
2023-01-23T05:13:38.921Z,1.37
2023-01-23T05:14:10.339Z,1.78
2023-01-23T05:14:41.737Z,1.32
2023-01-23T05:15:13.140Z,1.31
2023-01-23T05:15:44.576Z,1.42
2023-01-23T05:16:15.999Z,1.47
2023-01-23T05:16:47.414Z,1.47
2023-01-23T05:17:18.861Z,1.82
2023-01-23T05:17:50.254Z,1.55
2023-01-23T05:18:21.666Z,1.49
2023-01-23T05:18:53.055Z,1.15
2023-01-23T05:19:24.493Z,1.60
2023-01-23T05:19:55.884Z,0.95
2023-01-23T05:20:27.294Z,1.36
2023-01-23T05:20:58.695Z,1.82
2023-01-23T05:21:30.110Z,1.44
2023-01-23T05:22:01.507Z,1.49
2023-01-23T05:22:32.998Z,1.09
2023-01-23T05:23:04.400Z,0.70
2023-01-23T05:23:35.801Z,1.11
2023-01-23T05:24:07.198Z,1.13
2023-01-23T05:24:38.641Z,1.16
2023-01-23T05:25:10.090Z,1.46
2023-01-23T05:25:41.493Z,1.57
2023-01-23T05:26:12.917Z,1.98
2023-01-23T05:26:44.379Z,1.49
2023-01-23T05:27:15.795Z,1.62
2023-01-23T05:27:47.254Z,1.40
2023-01-23T05:28:18.678Z,1.22
2023-01-23T05:28:50.091Z,1.22
2023-01-23T05:29:21.507Z,1.44
2023-01-23T05:29:53.126Z,1.50
2023-01-23T05:30:24.530Z,1.47
2023-01-23T05:30:56.108Z,1.50
2023-01-23T05:31:27.721Z,1.38
2023-01-23T05:31:59.146Z,1.34
2023-01-23T05:32:30.547Z,1.33
2023-01-23T05:33:02.003Z,1.38
2023-01-23T05:33:33.411Z,1.24
2023-01-23T05:34:04.807Z,1.36
2023-01-23T05:34:36.201Z,1.44
2023-01-23T05:35:07.632Z,1.47
2023-01-23T05:35:39.034Z,1.46
2023-01-23T05:36:10.451Z,1.59
2023-01-23T05:36:41.872Z,1.32
2023-01-23T05:37:13.270Z,0.96
2023-01-23T05:37:44.667Z,1.24
2023-01-23T05:38:16.092Z,1.60
2023-01-23T05:38:47.496Z,1.79
2023-01-23T05:39:18.905Z,1.26
2023-01-23T05:39:50.301Z,1.00
2023-01-23T05:40:21.969Z,1.43
2023-01-23T05:40:53.573Z,1.37
2023-01-23T05:41:25.778Z,1.30
2023-01-23T05:41:57.268Z,1.13
2023-01-23T05:42:28.673Z,1.18
2023-01-23T05:43:00.104Z,1.72
2023-01-23T05:43:31.564Z,1.38
2023-01-23T05:44:02.989Z,0.95
2023-01-23T05:44:34.408Z,1.02
2023-01-23T05:45:05.827Z,1.32
2023-01-23T05:45:37.239Z,1.38
2023-01-23T05:46:08.728Z,1.48
2023-01-23T05:46:40.198Z,1.36
2023-01-23T05:47:11.618Z,1.30
2023-01-23T05:47:43.041Z,1.38
2023-01-23T05:48:14.464Z,1.38
2023-01-23T05:48:45.909Z,1.71
2023-01-23T05:49:17.305Z,1.66
2023-01-23T05:49:48.824Z,1.25
2023-01-23T05:50:20.455Z,1.77
2023-01-23T05:50:52.001Z,1.25
2023-01-23T05:51:23.602Z,1.47
2023-01-23T05:51:55.047Z,1.46
2023-01-23T05:52:26.444Z,1.06
2023-01-23T05:52:57.859Z,1.29
2023-01-23T05:53:29.277Z,1.23
2023-01-23T05:54:00.709Z,1.33
2023-01-23T05:54:32.116Z,1.08
2023-01-23T05:55:03.511Z,1.28
2023-01-23T05:55:34.929Z,1.37
2023-01-23T05:56:06.342Z,1.26
2023-01-23T05:56:37.764Z,1.29
2023-01-23T05:57:09.177Z,1.54
2023-01-23T05:57:40.580Z,1.18
2023-01-23T05:58:13.371Z,1.06
2023-01-23T05:58:45.865Z,1.31
2023-01-23T05:59:17.315Z,1.01
2023-01-23T05:59:48.708Z,1.21
2023-01-23T06:00:20.356Z,1.17
2023-01-23T06:00:51.929Z,1.18
2023-01-23T06:01:23.326Z,1.59
2023-01-23T06:01:54.721Z,1.18
2023-01-23T06:02:26.171Z,1.33
2023-01-23T06:02:57.653Z,1.52
2023-01-23T06:03:29.174Z,1.23
2023-01-23T06:04:00.641Z,1.10
2023-01-23T06:04:32.111Z,1.42
2023-01-23T06:05:03.514Z,1.21
2023-01-23T06:05:34.935Z,1.51
2023-01-23T06:06:06.335Z,1.42
2023-01-23T06:06:37.748Z,1.14
2023-01-23T06:07:09.165Z,1.13
2023-01-23T06:07:40.560Z,1.04
2023-01-23T06:08:12.037Z,1.35
2023-01-23T06:08:43.451Z,1.23
2023-01-23T06:09:14.846Z,1.20
2023-01-23T06:09:46.329Z,1.25
2023-01-23T06:10:17.997Z,1.24
2023-01-23T06:10:49.574Z,1.20
2023-01-23T06:11:20.981Z,1.51
2023-01-23T06:11:52.374Z,1.41
2023-01-23T06:12:23.785Z,1.41
2023-01-23T06:12:55.195Z,1.27
2023-01-23T06:13:26.599Z,1.45
2023-01-23T06:13:58.044Z,1.18
2023-01-23T06:14:29.471Z,1.38
2023-01-23T06:15:00.900Z,1.26
2023-01-23T06:15:32.388Z,1.38
2023-01-23T06:16:03.894Z,1.37
2023-01-23T06:16:35.332Z,1.23
2023-01-23T06:17:06.732Z,1.49
2023-01-23T06:17:38.188Z,1.61
2023-01-23T06:18:09.621Z,1.47
2023-01-23T06:18:41.054Z,1.58
2023-01-23T06:19:12.457Z,1.25
2023-01-23T06:19:43.849Z,1.46
2023-01-23T06:20:15.344Z,1.19
2023-01-23T06:20:46.776Z,1.07
2023-01-23T06:21:18.200Z,1.06
2023-01-23T06:21:49.604Z,1.13
2023-01-23T06:22:21.000Z,1.25
2023-01-23T06:22:52.405Z,1.36
2023-01-23T06:23:23.805Z,1.36
2023-01-23T06:23:55.198Z,1.51
2023-01-23T06:24:26.594Z,1.48
2023-01-23T06:24:58.026Z,1.09
2023-01-23T06:25:29.502Z,1.13
2023-01-23T06:26:00.905Z,1.17
2023-01-23T06:26:32.309Z,1.15
2023-01-23T06:27:03.697Z,1.29
2023-01-23T06:27:35.095Z,1.13
2023-01-23T06:28:06.486Z,1.63
2023-01-23T06:28:37.902Z,1.44
2023-01-23T06:29:09.294Z,1.27
2023-01-23T06:29:40.703Z,1.29
2023-01-23T06:30:12.113Z,1.32
2023-01-23T06:30:43.551Z,1.53
2023-01-23T06:31:15.137Z,1.18
2023-01-23T06:31:46.595Z,1.44
2023-01-23T06:32:18.029Z,1.42
2023-01-23T06:32:49.426Z,1.20
2023-01-23T06:33:20.847Z,1.25
2023-01-23T06:33:52.269Z,1.64
2023-01-23T06:34:23.683Z,1.17
2023-01-23T06:34:55.095Z,1.49
2023-01-23T06:35:26.524Z,1.20
2023-01-23T06:35:57.963Z,0.88
2023-01-23T06:36:29.382Z,1.03
2023-01-23T06:37:00.784Z,1.29
2023-01-23T06:37:32.197Z,1.11
2023-01-23T06:38:03.604Z,0.95
2023-01-23T06:38:35.005Z,1.20
2023-01-23T06:39:06.430Z,1.23
2023-01-23T06:39:37.832Z,1.20
2023-01-23T06:40:09.229Z,1.40
2023-01-23T06:40:40.662Z,1.22
2023-01-23T06:41:12.081Z,1.03
2023-01-23T06:41:43.493Z,1.38
2023-01-23T06:42:14.882Z,1.43
2023-01-23T06:42:46.288Z,1.27
2023-01-23T06:43:17.699Z,1.38
2023-01-23T06:43:49.113Z,1.52
2023-01-23T06:44:20.518Z,1.58
2023-01-23T06:44:51.911Z,1.28
2023-01-23T06:45:23.307Z,1.33
2023-01-23T06:45:54.749Z,1.05
2023-01-23T06:46:26.222Z,0.97
2023-01-23T06:46:57.654Z,1.05
2023-01-23T06:47:29.052Z,1.01
2023-01-23T06:48:00.455Z,1.17
2023-01-23T06:48:31.877Z,1.18
2023-01-23T06:49:06.034Z,1.52
2023-01-23T06:49:37.669Z,1.35
2023-01-23T06:50:09.089Z,1.30
2023-01-23T06:50:40.514Z,1.48
2023-01-23T06:51:11.966Z,1.64
2023-01-23T06:51:43.393Z,1.10
2023-01-23T06:52:14.794Z,1.12
2023-01-23T06:52:46.210Z,1.26
2023-01-23T06:53:17.629Z,1.04
2023-01-23T06:53:49.027Z,1.03
2023-01-23T06:54:20.436Z,0.78
2023-01-23T06:54:51.851Z,1.08
2023-01-23T06:55:23.245Z,1.27
2023-01-23T06:55:54.666Z,1.38
2023-01-23T06:56:26.057Z,1.07
2023-01-23T06:56:57.450Z,1.51
2023-01-23T06:57:28.888Z,1.00
2023-01-23T06:58:00.293Z,1.54
2023-01-23T06:58:31.681Z,1.12